Time;durP1;ratioP1;P1;durP2;ratioP2;P2;SDS_P1;SDS_P2;PMS_P1;PMS_P2;Temp;Humidity;BMP_temperature;BMP_pressure;BME280_temperature;BME280_humidity;BME280_pressure;Samples;Min_cycle;Max_cycle;Signal;HPM_P1;HPM_P2
2021/05/07 00:02:23;;;;;;;;;4.00;4.00;;;;;17.04;43.24;97786.38;6184908;28;126435;-66
2021/05/07 00:05:26;;;;;;;;;5.40;4.40;;;;;16.85;44.33;97766.47;6188723;28;126029;-66
2021/05/07 00:08:33;;;;;;;;;4.00;4.00;;;;;16.88;43.18;97763.97;6190094;28;128154;-66
2021/05/07 00:11:35;;;;;;;;;3.00;3.00;;;;;17.00;41.38;97770.94;6191415;28;123768;-67
2021/05/07 00:14:37;;;;;;;;;4.00;3.00;;;;;17.03;41.18;97775.78;6212658;28;125215;-67
2021/05/07 00:17:40;;;;;;;;;4.00;3.50;;;;;17.05;40.95;97781.75;6203043;28;126781;-67
2021/05/07 00:20:43;;;;;;;;;4.00;4.00;;;;;17.05;43.50;97768.13;6209454;28;126129;-67
2021/05/07 00:23:47;;;;;;;;;4.00;3.00;;;;;17.07;44.94;97777.63;6213522;28;124512;-67
2021/05/07 00:26:50;;;;;;;;;5.00;2.25;;;;;16.87;45.37;97756.88;6212920;28;127481;-67
2021/05/07 00:29:52;;;;;;;;;4.00;4.00;;;;;17.00;45.17;97765.47;6214733;28;124493;-67
2021/05/07 00:32:55;;;;;;;;;3.00;3.00;;;;;16.98;45.70;97762.22;6174692;28;125371;-67
2021/05/07 00:35:57;;;;;;;;;3.00;3.00;;;;;16.93;46.60;97748.66;6189895;28;126805;-67
2021/05/07 00:39:00;;;;;;;;;3.00;3.00;;;;;16.82;46.75;97728.91;6189863;28;125112;-67
2021/05/07 00:42:04;;;;;;;;;4.00;4.00;;;;;16.89;46.54;97748.44;6188458;28;123004;-67
2021/05/07 00:45:08;;;;;;;;;4.00;4.00;;;;;16.76;45.30;97746.44;6213190;28;125044;-67
2021/05/07 00:48:12;;;;;;;;;4.00;3.00;;;;;16.39;45.57;97706.22;6212720;28;124860;-67
2021/05/07 00:51:15;;;;;;;;;3.50;3.50;;;;;16.59;45.13;97740.59;6188628;28;125804;-67
2021/05/07 00:54:19;;;;;;;;;4.00;4.00;;;;;16.51;45.40;97731.16;6188062;28;126381;-67
2021/05/07 00:57:22;;;;;;;;;3.00;3.00;;;;;16.33;45.47;97723.69;6189604;28;126079;-67
2021/05/07 01:00:26;;;;;;;;;3.00;3.00;;;;;16.37;45.98;97717.38;6187700;28;126424;-67
2021/05/07 01:03:28;;;;;;;;;4.00;4.00;;;;;16.26;46.07;97718.59;6210556;28;124133;-67
2021/05/07 01:06:34;;;;;;;;;4.00;3.00;;;;;16.15;45.91;97717.06;6212940;28;126481;-67
2021/05/07 01:09:37;;;;;;;;;3.80;3.20;;;;;16.12;47.53;97720.38;6185238;28;124087;-67
2021/05/07 01:12:41;;;;;;;;;6.00;4.00;;;;;16.16;47.65;97710.53;6187923;28;127910;-67
2021/05/07 01:15:43;;;;;;;;;3.50;3.50;;;;;16.11;47.32;97707.06;6187146;28;125133;-67
2021/05/07 01:18:45;;;;;;;;;4.60;4.00;;;;;16.04;47.82;97705.47;6207629;28;127654;-67
2021/05/07 01:21:49;;;;;;;;;4.00;4.00;;;;;16.06;47.06;97701.66;6212343;28;126706;-67
2021/05/07 01:24:52;;;;;;;;;5.00;5.00;;;;;15.98;47.58;97693.00;6212259;28;124717;-67
2021/05/07 01:27:57;;;;;;;;;4.60;4.00;;;;;15.79;47.01;97691.28;6211885;28;125374;-67
2021/05/07 01:30:59;;;;;;;;;6.00;6.00;;;;;15.54;47.80;97692.31;6213113;28;124628;-67
2021/05/07 01:34:06;;;;;;;;;4.00;4.00;;;;;15.32;48.53;97679.09;6195783;28;123903;-67
2021/05/07 01:37:09;;;;;;;;;5.75;5.00;;;;;15.37;48.31;97673.63;6210158;28;125198;-67
2021/05/07 01:40:17;;;;;;;;;5.20;5.20;;;;;15.26;48.49;97671.25;6195430;28;125563;-67
2021/05/07 01:43:20;;;;;;;;;4.60;4.60;;;;;15.24;47.52;97668.03;6204095;28;125956;-67
2021/05/07 01:46:25;;;;;;;;;7.50;6.00;;;;;14.99;49.29;97661.66;6206404;28;124898;-67
2021/05/07 01:49:28;;;;;;;;;5.00;4.20;;;;;15.04;48.39;97658.09;6212077;28;126483;-67
2021/05/07 01:52:31;;;;;;;;;6.00;6.00;;;;;14.93;48.40;97630.22;6211457;28;126409;-67
2021/05/07 01:55:35;;;;;;;;;5.00;4.00;;;;;15.08;48.58;97654.53;6211369;28;127974;-67
2021/05/07 01:58:38;;;;;;;;;6.00;5.50;;;;;15.05;48.62;97633.38;6211151;28;126065;-67
2021/05/07 02:01:42;;;;;;;;;6.75;6.00;;;;;14.99;49.36;97642.66;6212851;28;126084;-67
2021/05/07 02:04:44;;;;;;;;;5.00;4.00;;;;;14.99;48.83;97636.41;6204185;28;126264;-67
2021/05/07 02:07:49;;;;;;;;;4.00;4.00;;;;;15.06;48.66;97632.28;6174796;28;126359;-67
2021/05/07 02:10:52;;;;;;;;;4.00;3.40;;;;;15.07;48.93;97623.06;6186912;28;123694;-67
2021/05/07 02:13:54;;;;;;;;;4.00;4.00;;;;;15.00;48.01;97597.34;6186732;28;124951;-67
2021/05/07 02:16:57;;;;;;;;;4.00;3.00;;;;;15.17;47.80;97617.56;6203217;28;124738;-67
2021/05/07 02:20:00;;;;;;;;;3.00;3.00;;;;;15.19;47.95;97614.59;6186276;28;125602;-66
2021/05/07 02:23:03;;;;;;;;;4.00;4.00;;;;;15.21;47.73;97609.66;6186652;28;125100;-66
2021/05/07 02:26:05;;;;;;;;;3.00;3.00;;;;;15.23;47.66;97607.50;6186302;28;124855;-66
2021/05/07 02:29:17;;;;;;;;;3.00;3.00;;;;;15.28;46.98;97615.59;6185418;28;124894;-67
2021/05/07 02:32:20;;;;;;;;;6.60;5.00;;;;;15.38;46.72;97612.81;6187325;28;127672;-67
2021/05/07 02:35:24;;;;;;;;;5.00;5.00;;;;;15.25;47.00;97612.66;6169726;28;126163;-66
2021/05/07 02:38:27;;;;;;;;;2.00;2.00;;;;;15.37;46.78;97602.22;6193484;28;125605;-66
2021/05/07 02:41:30;;;;;;;;;2.00;2.00;;;;;15.40;46.31;97607.06;6210847;28;126356;-67
2021/05/07 02:44:32;;;;;;;;;3.00;3.00;;;;;15.46;46.05;97605.94;6212255;28;127343;-67
2021/05/07 02:47:36;;;;;;;;;2.00;2.00;;;;;15.49;45.31;97603.47;6211958;28;125118;-67
2021/05/07 02:50:39;;;;;;;;;2.80;2.80;;;;;15.45;45.74;97588.03;6210610;28;127280;-66
2021/05/07 02:53:42;;;;;;;;;2.00;2.00;;;;;15.33;45.15;97555.00;6210859;28;127661;-67
2021/05/07 02:56:44;;;;;;;;;2.00;2.00;;;;;15.50;44.60;97568.97;6186780;28;126772;-67
2021/05/07 02:59:47;;;;;;;;;2.75;2.75;;;;;15.28;44.56;97533.34;6202826;28;125440;-67
2021/05/07 03:02:49;;;;;;;;;2.00;2.00;;;;;15.62;44.51;97574.06;6210579;28;125512;-67
2021/05/07 03:05:51;;;;;;;;;2.60;2.60;;;;;15.66;44.59;97573.22;6195149;28;124934;-66
2021/05/07 03:08:54;;;;;;;;;2.00;2.00;;;;;15.71;44.48;97569.63;6189436;28;125200;-67
2021/05/07 03:11:57;;;;;;;;;2.00;2.00;;;;;15.78;44.20;97560.06;6187311;28;125026;-67
2021/05/07 03:14:59;;;;;;;;;2.00;2.00;;;;;15.87;44.27;97568.38;6185934;28;123169;-67
2021/05/07 03:18:01;;;;;;;;;3.00;3.00;;;;;15.91;43.79;97562.09;6187049;28;125577;-67
2021/05/07 03:21:04;;;;;;;;;2.00;2.00;;;;;15.79;43.87;97550.78;6209786;28;125469;-66
2021/05/07 03:24:08;;;;;;;;;2.00;2.00;;;;;15.90;44.09;97570.53;6211515;28;126462;-66
2021/05/07 03:27:11;;;;;;;;;3.00;3.00;;;;;15.88;44.20;97565.38;6211279;28;126944;-66
2021/05/07 03:30:14;;;;;;;;;0.20;0.20;;;;;15.89;44.10;97569.72;6203158;28;127632;-66
2021/05/07 03:33:16;;;;;;;;;3.00;2.20;;;;;15.90;44.04;97548.78;6186881;28;125121;-67
2021/05/07 03:36:19;;;;;;;;;2.25;2.00;;;;;15.99;43.59;97555.19;6185715;28;127348;-67
2021/05/07 03:39:22;;;;;;;;;2.00;2.00;;;;;16.04;42.82;97557.88;6194926;28;125485;-66
2021/05/07 03:42:24;;;;;;;;;2.00;2.00;;;;;16.10;43.00;97553.19;6215549;28;125300;-66
2021/05/07 03:45:27;;;;;;;;;2.00;2.00;;;;;16.14;42.87;97554.22;6200907;28;126346;-67
2021/05/07 03:48:29;;;;;;;;;2.00;2.00;;;;;15.93;42.81;97518.31;6212925;28;127064;-66
2021/05/07 03:51:32;;;;;;;;;2.00;2.00;;;;;16.29;43.03;97557.56;6215400;28;127388;-66
2021/05/07 03:54:35;;;;;;;;;3.00;2.40;;;;;16.35;42.93;97553.69;6215315;28;126646;-66
2021/05/07 03:57:37;;;;;;;;;3.00;3.00;;;;;16.24;43.01;97541.31;6214359;28;124399;-67
2021/05/07 04:00:40;;;;;;;;;3.00;3.00;;;;;16.37;43.06;97551.47;6210682;28;126385;-67
2021/05/07 04:03:42;;;;;;;;;2.00;2.00;;;;;16.43;42.87;97552.22;6209495;28;128874;-67
2021/05/07 04:06:45;;;;;;;;;1.40;1.40;;;;;16.47;42.80;97556.78;6199253;28;127646;-67
2021/05/07 04:09:52;;;;;;;;;1.00;1.00;;;;;16.56;42.89;97556.97;6213137;28;125968;-67
2021/05/07 04:16:14;;;;;;;;;3.00;2.50;;;;;16.70;42.46;97548.91;6208886;28;126162;-67
2021/05/07 04:19:17;;;;;;;;;3.00;3.00;;;;;16.73;42.87;97554.56;6213952;28;126387;-67
2021/05/07 04:22:19;;;;;;;;;3.00;3.00;;;;;16.76;42.55;97566.81;6193313;28;128456;-66
2021/05/07 04:25:23;;;;;;;;;3.00;3.00;;;;;16.76;42.61;97573.03;6191896;28;125388;-66
2021/05/07 04:28:25;;;;;;;;;2.40;2.40;;;;;16.75;42.67;97582.31;6189874;28;126338;-66
2021/05/07 04:31:27;;;;;;;;;3.00;3.00;;;;;16.79;42.17;97567.00;6202036;28;125675;-67
2021/05/07 04:34:30;;;;;;;;;3.00;3.00;;;;;16.80;42.25;97573.28;6211427;28;125575;-66
2021/05/07 04:37:32;;;;;;;;;4.40;3.00;;;;;16.77;42.57;97566.50;6209177;28;126428;-67
2021/05/07 04:40:36;;;;;;;;;4.00;4.00;;;;;16.84;42.65;97569.66;6199204;28;125255;-67
2021/05/07 04:43:39;;;;;;;;;4.00;4.00;;;;;16.94;42.81;97571.44;6190179;28;126063;-66
2021/05/07 04:46:41;;;;;;;;;5.00;5.00;;;;;17.00;42.64;97567.53;6187317;28;127135;-66
2021/05/07 04:49:44;;;;;;;;;4.25;4.25;;;;;17.11;42.74;97565.44;6195292;28;126238;-67
2021/05/07 04:52:46;;;;;;;;;4.00;4.00;;;;;16.76;42.43;97496.81;6205349;28;126522;-67
2021/05/07 04:55:49;;;;;;;;;5.00;5.00;;;;;17.30;42.36;97577.13;6213790;28;126469;-67
2021/05/07 04:58:52;;;;;;;;;5.00;5.00;;;;;17.25;42.32;97574.50;6212434;28;127440;-67
2021/05/07 05:01:54;;;;;;;;;5.00;5.00;;;;;17.26;42.30;97573.38;6212102;28;125456;-67
2021/05/07 05:04:57;;;;;;;;;5.00;4.75;;;;;17.21;42.12;97581.63;6196393;28;124805;-67
2021/05/07 05:07:59;;;;;;;;;4.00;4.00;;;;;17.44;41.90;97588.09;6188796;28;126379;-67
2021/05/07 05:11:02;;;;;;;;;3.80;3.80;;;;;17.52;41.69;97582.78;6186746;28;125519;-67
2021/05/07 05:14:05;;;;;;;;;4.75;4.00;;;;;17.61;41.74;97588.38;6201548;28;126339;-67
2021/05/07 05:17:07;;;;;;;;;4.00;4.00;;;;;17.62;41.58;97599.00;6191434;28;126464;-67
2021/05/07 05:20:10;;;;;;;;;4.00;4.00;;;;;17.64;41.65;97585.06;6187182;28;127754;-67
2021/05/07 05:23:12;;;;;;;;;5.20;5.20;;;;;17.74;41.31;97590.31;6188200;28;126049;-67
2021/05/07 05:26:16;;;;;;;;;4.00;4.00;;;;;17.70;41.50;97573.75;6207262;28;126955;-67
2021/05/07 05:29:18;;;;;;;;;4.20;4.20;;;;;17.97;41.09;97577.66;6195115;28;127591;-67
2021/05/07 05:32:20;;;;;;;;;5.00;5.00;;;;;17.93;40.82;97577.47;6205459;28;127623;-67
2021/05/07 05:35:24;;;;;;;;;4.00;4.00;;;;;18.15;40.91;97565.84;6212875;28;124255;-67
2021/05/07 05:38:26;;;;;;;;;6.00;5.40;;;;;18.29;40.32;97554.94;6212213;28;126469;-67
2021/05/07 05:41:30;;;;;;;;;5.00;5.00;;;;;18.54;40.36;97560.72;6189390;28;126504;-67
2021/05/07 05:44:32;;;;;;;;;5.25;4.25;;;;;18.60;39.91;97564.16;6203219;28;126950;-67
2021/05/07 05:47:34;;;;;;;;;5.00;4.00;;;;;18.50;39.75;97537.03;6210514;28;126521;-67
2021/05/07 05:50:38;;;;;;;;;4.00;4.00;;;;;18.64;39.57;97554.22;6210113;28;127258;-67
2021/05/07 05:53:40;;;;;;;;;4.00;4.00;;;;;18.94;39.38;97563.69;6211491;28;128461;-67
2021/05/07 05:56:44;;;;;;;;;4.60;4.60;;;;;19.04;39.03;97568.91;6211627;28;127635;-67
2021/05/07 05:59:46;;;;;;;;;4.00;4.00;;;;;19.11;39.17;97590.34;6212623;28;126549;-67
2021/05/07 06:02:48;;;;;;;;;4.00;4.00;;;;;19.19;38.76;97590.41;6212553;28;126168;-66
2021/05/07 06:05:50;;;;;;;;;4.00;4.00;;;;;19.28;39.08;97588.56;6212809;28;127415;-66
2021/05/07 06:08:53;;;;;;;;;4.20;4.00;;;;;19.26;38.49;97582.56;6201844;28;126990;-66
2021/05/07 06:11:56;;;;;;;;;4.00;4.00;;;;;19.36;38.17;97592.47;6192085;28;127322;-66
2021/05/07 06:14:58;;;;;;;;;4.40;4.00;;;;;19.38;38.24;97596.50;6209993;28;125077;-66
2021/05/07 06:18:00;;;;;;;;;4.00;3.00;;;;;19.27;37.59;97586.13;6193141;28;125215;-65
2021/05/07 06:21:03;;;;;;;;;4.00;3.00;;;;;19.08;37.41;97586.28;6210840;28;126146;-66
2021/05/07 06:24:06;;;;;;;;;3.00;3.00;;;;;19.11;37.50;97584.88;6203410;28;126189;-65
2021/05/07 06:27:09;;;;;;;;;4.00;4.00;;;;;19.19;38.03;97603.25;6210736;28;123576;-65
2021/05/07 06:30:14;;;;;;;;;4.00;3.00;;;;;19.33;37.95;97601.28;6212024;28;126050;-66
2021/05/07 06:33:16;;;;;;;;;3.00;3.00;;;;;19.28;37.30;97596.75;6210798;28;125322;-66
2021/05/07 06:36:20;;;;;;;;;3.00;3.00;;;;;19.51;37.11;97603.06;6210712;28;128181;-66
2021/05/07 06:39:28;;;;;;;;;4.00;3.40;;;;;19.78;36.95;97599.41;6211516;28;125186;-66
2021/05/07 06:42:34;;;;;;;;;2.00;2.00;;;;;19.88;36.20;97599.94;6204517;28;123671;-66
2021/05/07 06:45:37;;;;;;;;;2.00;1.20;;;;;20.22;35.51;97596.59;6204943;28;125777;-65
2021/05/07 06:48:41;;;;;;;;;3.00;3.00;;;;;20.43;34.93;97598.78;6197218;28;127647;-66
2021/05/07 06:51:43;;;;;;;;;2.00;2.00;;;;;20.29;35.01;97593.38;6201309;28;125168;-65
2021/05/07 06:54:46;;;;;;;;;3.00;3.00;;;;;20.57;34.83;97591.25;6196701;28;125145;-65
2021/05/07 06:57:50;;;;;;;;;3.75;3.00;;;;;20.53;34.36;97591.06;6199281;28;125219;-65
2021/05/07 07:00:52;;;;;;;;;2.00;2.00;;;;;20.69;34.17;97603.22;6195408;28;124892;-65
2021/05/07 07:03:55;;;;;;;;;2.00;2.00;;;;;20.77;34.56;97603.56;6198450;28;125340;-66
2021/05/07 07:06:58;;;;;;;;;3.00;2.00;;;;;20.60;34.21;97596.09;6195433;28;126492;-66
2021/05/07 07:10:00;;;;;;;;;2.00;1.00;;;;;20.72;34.25;97593.56;6204962;28;124988;-66
2021/05/07 07:13:03;;;;;;;;;2.00;2.00;;;;;20.80;33.73;97595.50;6185620;28;125263;-68
2021/05/07 07:16:06;;;;;;;;;2.00;2.00;;;;;20.97;34.44;97594.72;6184360;28;126264;-66
2021/05/07 07:19:08;;;;;;;;;2.00;1.75;;;;;;;;6184743;28;126797;-66
2021/05/07 07:22:30;;;;;;;;;2.00;2.00;;;;;20.88;33.31;97572.78;6186195;28;124470;-67
2021/05/07 07:25:32;;;;;;;;;3.50;3.50;;;;;20.71;33.72;97597.41;6185882;28;124924;-67
2021/05/07 07:28:36;;;;;;;;;2.00;2.00;;;;;20.46;33.91;97581.72;6187957;28;126379;-67
2021/05/07 07:31:38;;;;;;;;;2.00;2.00;;;;;20.40;34.32;97592.00;6200244;28;125547;-67
2021/05/07 07:34:41;;;;;;;;;3.00;3.00;;;;;20.35;34.61;97581.19;6185973;28;127482;-67
2021/05/07 07:37:43;;;;;;;;;2.40;2.40;;;;;20.50;34.77;97580.78;6194561;28;126434;-67
2021/05/07 07:40:45;;;;;;;;;3.20;3.20;;;;;20.48;34.15;97577.53;6202302;28;126148;-67
2021/05/07 07:43:49;;;;;;;;;3.00;2.00;;;;;20.62;34.40;97578.22;6183457;28;125189;-67
2021/05/07 07:46:51;;;;;;;;;3.00;3.00;;;;;20.51;34.69;97567.88;6182737;28;127067;-67
2021/05/07 07:49:54;;;;;;;;;2.00;2.00;;;;;20.78;34.55;97581.31;6184618;28;126310;-67
2021/05/07 07:52:56;;;;;;;;;2.00;2.00;;;;;21.17;34.26;97592.19;6192956;28;125545;-67
2021/05/07 07:55:59;;;;;;;;;2.00;2.00;;;;;21.27;33.37;97590.25;6195990;28;126655;-67
2021/05/07 07:59:02;;;;;;;;;2.00;2.00;;;;;21.32;33.10;97588.16;6209968;28;126615;-67
2021/05/07 08:02:04;;;;;;;;;2.00;2.00;;;;;21.37;32.96;97601.72;6207767;28;126844;-67
2021/05/07 08:05:08;;;;;;;;;3.00;3.00;;;;;21.30;33.25;97617.03;6192086;28;124938;-67
2021/05/07 08:08:10;;;;;;;;;4.00;4.00;;;;;21.29;33.48;97627.19;6207336;28;126120;-67
2021/05/07 08:11:13;;;;;;;;;3.00;3.00;;;;;21.15;33.14;97637.50;6183473;28;124978;-67
2021/05/07 08:14:16;;;;;;;;;3.00;2.00;;;;;21.13;33.60;97626.84;6202274;28;127004;-67
2021/05/07 08:17:18;;;;;;;;;2.00;2.00;;;;;21.02;33.45;97625.50;6186180;28;126285;-67
2021/05/07 08:20:24;;;;;;;;;1.00;1.00;;;;;20.82;33.90;97630.81;6183793;28;124866;-67
2021/05/07 08:23:26;;;;;;;;;2.00;2.00;;;;;20.77;34.59;97636.44;6185068;28;125337;-67
2021/05/07 08:26:28;;;;;;;;;2.00;2.00;;;;;20.56;34.75;97639.75;6201575;28;126488;-67
2021/05/07 08:29:32;;;;;;;;;3.00;2.00;;;;;20.38;34.63;97643.50;6209526;28;127606;-67
2021/05/07 08:32:36;;;;;;;;;3.00;3.00;;;;;20.28;35.11;97647.28;6214429;27;124676;-66
2021/05/07 08:35:38;;;;;;;;;2.20;2.00;;;;;20.45;34.49;97643.06;6206819;28;127579;-66
2021/05/07 08:38:40;;;;;;;;;2.00;1.00;;;;;20.86;33.97;97646.28;6200666;28;126175;-68
2021/05/07 08:41:44;;;;;;;;;2.00;2.00;;;;;21.32;33.05;97637.50;6197973;28;126152;-66
2021/05/07 08:44:47;;;;;;;;;1.00;1.00;;;;;21.23;33.15;97628.47;6201318;28;126835;-68
2021/05/07 08:47:53;;;;;;;;;1.80;1.80;;;;;21.34;32.97;97634.47;6201854;28;126613;-68
2021/05/07 08:50:56;;;;;;;;;2.00;2.00;;;;;21.33;33.23;97625.41;6208150;28;124904;-68
2021/05/07 08:53:58;;;;;;;;;3.00;1.40;;;;;20.95;33.20;97638.09;6191114;28;128567;-66
2021/05/07 08:57:08;;;;;;;;;2.00;2.00;;;;;20.69;33.39;97640.75;6189553;28;127818;-66
2021/05/07 09:00:13;;;;;;;;;1.00;1.00;;;;;20.94;32.90;97650.16;6196002;28;124893;-66
2021/05/07 09:03:16;;;;;;;;;2.00;1.80;;;;;21.11;32.94;97648.25;6202352;28;124975;-66
2021/05/07 09:06:22;;;;;;;;;1.00;1.00;;;;;21.05;33.01;97619.41;6198384;28;125451;-66
2021/05/07 09:09:26;;;;;;;;;1.00;1.00;;;;;21.09;33.16;97656.00;6188668;28;126218;-67
2021/05/07 09:12:35;;;;;;;;;2.50;2.00;;;;;21.08;32.73;97657.13;6188518;28;125920;-67
2021/05/07 09:15:41;;;;;;;;;1.60;1.60;;;;;21.03;33.50;97661.94;6188557;28;127112;-67
2021/05/07 09:18:45;;;;;;;;;2.00;2.00;;;;;20.74;33.82;97674.28;6188464;28;127015;-66
2021/05/07 09:21:48;;;;;;;;;2.60;2.00;;;;;20.91;33.60;97681.75;6190369;28;125973;-67
2021/05/07 09:24:50;;;;;;;;;1.00;1.00;;;;;20.86;34.00;97681.09;6209635;28;126084;-67
2021/05/07 09:27:54;;;;;;;;;2.00;1.50;;;;;20.92;34.40;97677.88;6199461;28;124361;-67
2021/05/07 09:31:10;;;;;;;;;1.00;1.00;;;;;20.67;34.02;97676.66;6196395;28;126037;-67
2021/05/07 09:34:12;;;;;;;;;2.00;2.00;;;;;20.76;34.13;97660.28;6200376;28;123827;-67
2021/05/07 09:37:17;;;;;;;;;1.00;1.00;;;;;20.97;34.13;97690.59;6187412;28;125881;-67
2021/05/07 09:40:21;;;;;;;;;2.00;2.00;;;;;21.18;33.78;97676.03;6187934;28;126073;-67
2021/05/07 09:43:25;;;;;;;;;2.00;2.00;;;;;21.41;33.20;97679.44;6203028;28;125115;-67
2021/05/07 09:46:33;;;;;;;;;2.00;2.00;;;;;21.52;33.06;97679.94;6203690;28;126107;-67
2021/05/07 09:49:35;;;;;;;;;2.00;1.80;;;;;21.51;33.41;97700.25;6195164;28;125929;-66
2021/05/07 09:52:37;;;;;;;;;3.00;3.00;;;;;21.42;34.36;97711.22;6191764;28;124333;-67
2021/05/07 09:55:40;;;;;;;;;2.50;2.00;;;;;21.16;33.98;97711.16;6185862;28;126721;-67
2021/05/07 09:58:43;;;;;;;;;3.00;2.00;;;;;20.92;34.13;97716.22;6205124;28;126342;-67
2021/05/07 10:01:47;;;;;;;;;1.40;1.40;;;;;20.93;34.87;97731.53;6210887;28;126834;-67
2021/05/07 10:04:50;;;;;;;;;2.40;2.40;;;;;21.21;34.78;97721.16;6193091;28;124264;-67
2021/05/07 10:07:53;;;;;;;;;1.00;1.00;;;;;21.48;34.42;97717.38;6184134;28;123206;-66
2021/05/07 10:10:58;;;;;;;;;2.00;2.00;;;;;21.89;34.21;97714.94;6194915;28;124096;-66
2021/05/07 10:14:06;;;;;;;;;2.00;2.00;;;;;21.99;33.62;97700.16;6191438;28;126331;-67
2021/05/07 10:17:10;;;;;;;;;2.00;1.50;;;;;22.20;33.44;97692.84;6185927;28;124975;-66
2021/05/07 10:20:22;;;;;;;;;3.00;2.00;;;;;22.46;32.77;97690.84;6185543;28;126598;-66
2021/05/07 10:23:33;;;;;;;;;2.00;2.00;;;;;22.69;33.30;97688.66;6186960;28;125778;-68
2021/05/07 10:26:38;;;;;;;;;2.00;2.00;;;;;22.76;32.20;97704.66;6185569;28;127144;-66
2021/05/07 10:29:51;;;;;;;;;2.00;2.00;;;;;22.77;31.30;97704.31;6185711;28;123504;-66
2021/05/07 10:33:03;;;;;;;;;2.00;2.00;;;;;22.48;30.40;97702.28;6194426;28;125879;-66
2021/05/07 10:36:07;;;;;;;;;2.60;2.60;;;;;22.67;30.82;97687.38;6196497;28;125343;-66
2021/05/07 10:39:17;;;;;;;;;2.00;1.00;;;;;22.85;29.94;97680.69;6198504;28;126310;-67
2021/05/07 10:42:20;;;;;;;;;2.00;1.00;;;;;22.98;30.33;97665.91;6189092;28;126210;-67
2021/05/07 10:45:42;;;;;;;;;1.00;1.00;;;;;23.16;29.11;97699.63;6186372;28;126084;-67
2021/05/07 10:48:51;;;;;;;;;2.00;2.00;;;;;23.29;29.17;97720.56;6184950;28;126137;-68
2021/05/07 10:51:56;;;;;;;;;2.00;1.00;;;;;23.45;29.30;97707.06;6191020;28;126098;-68
2021/05/07 10:55:06;;;;;;;;;1.80;1.80;;;;;23.22;29.79;97701.03;6185609;28;126541;-67
2021/05/07 10:58:08;;;;;;;;;2.00;1.00;;;;;23.13;28.33;97708.53;6183339;28;125934;-66
2021/05/07 11:01:18;;;;;;;;;3.00;3.00;;;;;23.39;28.91;97708.38;6184357;28;125130;-66
2021/05/07 11:04:21;;;;;;;;;3.00;3.00;;;;;23.27;29.36;97698.09;6192828;28;127292;-67
2021/05/07 11:07:27;;;;;;;;;2.50;2.00;;;;;22.85;29.57;97705.44;6208542;28;125012;-66
2021/05/07 11:10:30;;;;;;;;;3.00;3.00;;;;;22.52;30.44;97713.44;6187460;28;124752;-67
2021/05/07 11:13:32;;;;;;;;;3.40;3.40;;;;;22.22;31.33;97729.00;6185408;28;126368;-66
2021/05/07 11:16:39;;;;;;;;;3.00;3.00;;;;;22.22;32.12;97723.53;6184692;28;125238;-64
2021/05/07 11:19:44;;;;;;;;;1.00;1.00;;;;;22.40;30.27;97747.06;6184555;28;127684;-64
2021/05/07 11:22:56;;;;;;;;;1.00;1.00;;;;;22.22;31.00;97730.94;6208333;28;123686;-64
2021/05/07 11:26:05;;;;;;;;;2.00;2.00;;;;;22.06;31.70;97744.38;6210470;28;125858;-64
2021/05/07 11:29:07;;;;;;;;;2.00;2.00;;;;;22.21;31.82;97729.34;6192701;28;125037;-64
2021/05/07 11:32:11;;;;;;;;;2.00;2.00;;;;;22.38;31.12;97730.09;6209824;28;125186;-65
2021/05/07 11:35:14;;;;;;;;;2.60;2.00;;;;;22.42;30.37;97728.34;6197456;28;126135;-65
2021/05/07 11:38:27;;;;;;;;;1.00;1.00;;;;;22.34;29.46;97726.41;6197323;28;126231;-65
2021/05/07 11:41:29;;;;;;;;;1.00;1.00;;;;;22.79;29.89;97699.31;6179696;28;124826;-65
2021/05/07 11:44:31;;;;;;;;;2.00;2.00;;;;;22.85;29.05;97698.00;6201342;28;126928;-64
2021/05/07 11:47:34;;;;;;;;;1.80;1.80;;;;;22.82;28.29;97682.16;6193561;28;126403;-65
2021/05/07 11:50:38;;;;;;;;;2.00;2.00;;;;;22.84;27.86;97714.81;6199523;28;126293;-65
2021/05/07 11:53:41;;;;;;;;;2.00;2.00;;;;;22.73;28.08;97719.84;6193914;28;124956;-65
2021/05/07 11:56:44;;;;;;;;;2.00;1.00;;;;;23.16;28.36;97702.38;6185805;28;126537;-65
2021/05/07 11:59:48;;;;;;;;;2.00;2.00;;;;;23.38;28.00;97709.50;6193102;28;126309;-65
2021/05/07 12:02:58;;;;;;;;;1.00;1.00;;;;;23.82;27.45;97697.06;6205381;28;126468;-64
2021/05/07 12:06:13;;;;;;;;;2.00;2.00;;;;;23.99;27.20;97700.50;6197889;28;127100;-65
2021/05/07 12:09:15;;;;;;;;;3.00;2.20;;;;;23.78;27.18;97705.22;6192669;28;126159;-64
2021/05/07 12:12:18;;;;;;;;;2.00;2.00;;;;;23.45;27.68;97713.38;6200126;28;126527;-65
2021/05/07 12:15:43;;;;;;;;;3.00;3.00;;;;;23.38;29.92;97720.50;6200065;28;124859;-64
2021/05/07 12:18:52;;;;;;;;;3.60;3.00;;;;;23.36;30.43;97734.59;6193448;28;127145;-65
2021/05/07 12:21:55;;;;;;;;;4.80;3.00;;;;;23.30;30.46;97717.50;6204596;28;126197;-64
2021/05/07 12:25:07;;;;;;;;;5.00;4.00;;;;;23.44;30.75;97717.25;6199965;28;124635;-63
2021/05/07 12:28:16;;;;;;;;;3.00;2.40;;;;;23.60;30.70;97745.78;6203136;28;124607;-64
2021/05/07 12:31:18;;;;;;;;;5.00;4.50;;;;;23.74;30.44;97756.56;6210796;28;124750;-65
2021/05/07 12:34:21;;;;;;;;;3.00;3.00;;;;;23.84;29.92;97756.16;6213108;28;124303;-65
2021/05/07 12:37:24;;;;;;;;;2.00;2.00;;;;;23.81;29.60;97764.25;6213010;28;125029;-64
2021/05/07 12:40:27;;;;;;;;;3.00;3.00;;;;;24.06;29.30;97766.81;6212676;28;124607;-64
2021/05/07 12:43:32;;;;;;;;;2.00;2.00;;;;;24.42;29.46;97773.66;6213599;28;125303;-64
2021/05/07 12:46:34;;;;;;;;;3.00;3.00;;;;;24.68;28.48;97771.44;6189947;28;124556;-64
2021/05/07 12:49:37;;;;;;;;;3.00;3.00;;;;;24.94;28.24;97763.72;6187041;28;125274;-64
2021/05/07 12:52:40;;;;;;;;;3.00;2.25;;;;;24.88;27.48;97767.84;6192236;28;125515;-64
2021/05/07 12:55:42;;;;;;;;;4.00;4.00;;;;;24.80;27.46;97762.41;6213289;28;125018;-64
2021/05/07 12:58:45;;;;;;;;;2.80;2.80;;;;;24.69;27.78;97756.53;6212620;28;125181;-64
2021/05/07 13:01:47;;;;;;;;;3.00;3.00;;;;;24.70;27.91;97757.31;6209514;28;124992;-64
2021/05/07 13:04:51;;;;;;;;;3.00;3.00;;;;;24.64;26.83;97739.41;6188612;28;126772;-64
2021/05/07 13:07:54;;;;;;;;;3.00;3.00;;;;;24.35;26.74;97754.13;6171747;28;123852;-64
2021/05/07 13:10:56;;;;;;;;;4.00;3.00;;;;;24.25;26.12;97747.09;6212534;28;125052;-64
2021/05/07 13:13:59;;;;;;;;;3.00;3.00;;;;;24.31;25.92;97745.72;6211469;28;125292;-63
2021/05/07 13:17:03;;;;;;;;;3.40;2.40;;;;;24.32;26.71;97741.03;6213467;28;128123;-63
2021/05/07 13:20:07;;;;;;;;;3.00;3.00;;;;;24.44;26.80;97732.78;6211125;28;124894;-63
2021/05/07 13:23:11;;;;;;;;;3.00;3.00;;;;;24.71;26.96;97747.91;6201740;28;127172;-63
2021/05/07 13:26:13;;;;;;;;;3.00;3.00;;;;;24.54;26.23;97762.69;6209041;28;127367;-63
2021/05/07 13:29:15;;;;;;;;;3.00;3.00;;;;;24.54;26.19;97768.19;6188238;28;126874;-63
2021/05/07 13:32:19;;;;;;;;;4.00;4.00;;;;;24.65;26.47;97766.63;6186329;28;126485;-63
2021/05/07 13:35:21;;;;;;;;;3.00;3.00;;;;;24.85;26.12;97764.94;6186503;28;124231;-63
2021/05/07 13:38:25;;;;;;;;;4.25;4.25;;;;;25.03;26.22;97767.19;6187707;28;125610;-63
2021/05/07 13:41:27;;;;;;;;;4.00;4.00;;;;;25.10;25.15;97760.31;6206390;28;127346;-63
2021/05/07 13:44:29;;;;;;;;;4.00;4.00;;;;;25.11;25.13;97770.19;6212328;28;125442;-63
2021/05/07 13:47:32;;;;;;;;;3.00;3.00;;;;;25.00;25.02;97765.13;6212011;28;125497;-63
2021/05/07 13:50:34;;;;;;;;;3.00;3.00;;;;;24.68;25.17;97754.13;6211993;28;127492;-63
2021/05/07 13:53:38;;;;;;;;;5.00;4.00;;;;;24.82;25.25;97780.22;6212497;28;127670;-64
2021/05/07 13:56:40;;;;;;;;;5.00;5.00;;;;;24.99;25.65;97774.53;6192652;28;125073;-63
2021/05/07 13:59:43;;;;;;;;;3.00;3.00;;;;;24.88;25.72;97792.66;6199967;28;125189;-63
2021/05/07 14:02:45;;;;;;;;;4.50;4.00;;;;;24.72;25.85;97791.69;6202441;28;126870;-65
2021/05/07 14:05:47;;;;;;;;;4.67;4.67;;;;;24.72;25.26;97791.69;6187394;28;126517;-65
2021/05/07 14:08:50;;;;;;;;;5.00;5.00;;;;;24.81;26.63;97791.59;6190256;28;126623;-64
2021/05/07 14:11:54;;;;;;;;;3.00;3.00;;;;;24.29;25.95;97794.06;6211380;28;125027;-65
2021/05/07 14:14:57;;;;;;;;;4.60;4.00;;;;;24.21;26.50;97806.75;6210478;28;127979;-65
2021/05/07 14:17:59;;;;;;;;;4.60;4.00;;;;;23.85;27.59;97809.28;6189276;28;126227;-64
2021/05/07 14:21:02;;;;;;;;;5.00;5.00;;;;;23.70;28.27;97816.16;6186693;28;124997;-65